Latest Weather Observations for Oenpelli Airport

IDD60801

Issued at 6:31 pm CST Saturday 16 December 2017 (issued every 30 minutes, with the page automatically refreshed every 10 minutes)

About weather observations | Map of weather stations | Latest weather observations for NT | Other Formats
Station Details ID: 014310 Name: OENPELLI AIRPORT Lat: -12.33 Lon: 133.01 Height: 7.5 m
Data from the previous 72 hours. | See also: Recent months at Oenpelli Airport
Date/Time
CST
Temp
°C
App
Temp
°C
Dew
Point
°C
Rel
Hum
%
Delta-T
°C
Wind Press
QNH
hPa
Press
MSL
hPa
Rain since
9am
mm
Dir  Spd
km/h
Gust
km/h
Spd
kts
Gust
kts
16/06:30pm 30.6 32.9 21.4 58 6.2 NW 11 17 6 9 1006.2 1006.1 0.4
16/06:00pm 32.2 32.8 21.1 52 7.5 N 19 26 10 14 1005.9 1005.8 0.4
16/05:30pm 35.4 37.8 21.6 44 9.4 NNW 11 19 6 10 1005.2 1005.1 0.4
16/05:00pm 35.4 38.1 21.3 44 9.6 NW 9 15 5 8 1005.0 1004.9 0.4
16/04:30pm 36.1 38.3 19.1 36 11.3 N 6 13 3 7 1004.9 1004.8 0.4
16/04:00pm 36.7 40.7 20.5 39 10.9 CALM 0 2 0 1 1005.1 1005.0 0.4
16/03:30pm 35.3 39.1 21.6 45 9.4 SSW 4 6 2 3 1005.4 1005.3 0.4
16/03:00pm 32.1 36.8 23.3 59 6.1 SSE 4 7 2 4 1006.0 1005.9 0.4
16/02:30pm 34.6 38.2 21.3 46 9.0 ESE 4 7 2 4 1006.3 1006.2 0.2
16/02:00pm 35.4 38.4 20.9 42 9.8 S 6 9 3 5 1006.6 1006.5 0.0
16/01:30pm 34.7 39.1 21.4 46 9.0 CALM 0 4 0 2 1007.2 1007.1 0.0
16/01:00pm 34.9 38.0 22.2 47 8.7 NW 9 19 5 10 1007.7 1007.6 0.0
16/12:30pm 35.5 39.3 21.7 44 9.4 NW 4 7 2 4 1008.5 1008.4 0.0
16/12:00pm 34.4 37.7 22.5 50 8.2 NNW 9 13 5 7 1008.8 1008.7 0.0
16/11:30am 33.1 37.1 22.8 54 7.1 W 6 9 3 5 1009.2 1009.1 0.0
16/11:00am 32.8 36.6 21.0 50 7.9 W 2 6 1 3 1009.8 1009.7 0.0
16/10:30am 32.4 36.3 22.5 56 6.8 W 6 9 3 5 1010.2 1010.1 0.0
16/10:00am 32.0 36.7 22.7 58 6.4 NW 2 6 1 3 1010.6 1010.5 0.0
16/09:30am 32.2 37.4 24.8 65 5.2 W 6 9 3 5 1010.8 1010.7 0.0
16/09:00am 30.9 36.0 24.1 67 4.7 NNW 4 9 2 5 1011.0 1010.9 0.0
16/08:30am 30.1 35.7 24.3 71 4.0 N 2 6 1 3 1010.8 1010.7 0.0
16/08:00am 29.4 35.5 24.5 75 3.4 CALM 0 4 0 2 1010.7 1010.6 0.0
16/07:30am 27.6 33.6 24.2 82 2.4 CALM 0 0 0 0 1010.6 1010.5 0.0
16/07:00am 26.6 32.6 24.3 87 1.6 CALM 0 0 0 0 1010.4 1010.3 0.0
16/06:30am 25.3 30.9 23.5 90 1.2 CALM 0 0 0 0 1009.9 1009.8 0.0
16/06:00am 25.9 31.6 23.8 88 1.4 CALM 0 0 0 0 1009.1 1009.0 0.0
16/05:30am 26.2 31.1 23.7 86 1.7 E 4 4 2 2 1008.5 1008.4 0.0
16/05:00am 25.8 31.5 23.8 89 1.4 CALM 0 0 0 0 1008.1 1008.0 0.0
16/04:30am 25.9 31.4 23.4 86 1.7 CALM 0 0 0 0 1008.0 1007.9 0.0
16/04:00am 26.2 31.6 23.3 84 2.0 CALM 0 0 0 0 1007.8 1007.7 0.0
16/03:30am 26.8 32.0 23.5 82 2.3 NE 2 4 1 2 1007.5 1007.4 0.0
16/03:00am 26.8 32.4 23.5 82 2.3 CALM 0 0 0 0 1007.5 1007.4 0.0
16/02:30am 27.0 31.5 23.0 79 2.7 E 4 6 2 3 1007.4 1007.3 0.0
16/02:00am 27.1 32.0 23.1 79 2.7 E 2 6 1 3 1007.7 1007.6 0.0
16/01:30am 27.2 31.6 22.8 77 3.0 E 4 6 2 3 1007.9 1007.8 0.0
16/01:00am 26.9 31.1 22.5 77 3.0 E 4 6 2 3 1007.9 1007.8 0.0
16/12:30am 27.1 31.0 22.5 76 3.1 ENE 6 7 3 4 1008.1 1008.0 0.0
16/12:00am 27.2 31.6 22.8 77 3.0 ENE 4 6 2 3 1008.3 1008.2 0.0
 
Date/Time
CST
Temp
°C
App
Temp
°C
Dew
Point
°C
Rel
Hum
%
Delta-T
°C
Wind Press
QNH
hPa
Press
MSL
hPa
Rain since
9am
mm
Dir  Spd
km/h
Gust
km/h
Spd
kts
Gust
kts
15/11:30pm 27.1 32.2 23.3 80 2.6 ENE 2 4 1 2 1008.5 1008.4 0.0
15/11:00pm 26.8 31.6 23.5 82 2.3 E 4 6 2 3 1008.5 1008.4 0.0
15/10:30pm 26.9 31.6 23.4 81 2.4 ENE 4 6 2 3 1008.3 1008.2 0.0
15/10:00pm 26.9 31.5 23.2 80 2.5 ENE 4 6 2 3 1008.1 1008.0 0.0
15/09:30pm 27.3 31.8 22.9 77 3.0 NE 4 4 2 2 1007.8 1007.7 0.0
15/09:00pm 27.3 32.5 22.9 77 3.0 CALM 0 2 0 1 1007.5 1007.4 0.0
15/08:30pm 27.5 32.0 22.9 76 3.1 NNE 4 7 2 4 1007.4 1007.3 0.0
15/08:00pm 27.6 32.5 23.6 79 2.7 N 4 6 2 3 1007.3 1007.2 0.0
15/07:30pm 27.2 31.4 23.4 80 2.6 NNE 7 9 4 5 1007.3 1007.2 0.0
15/07:00pm 27.1 31.8 23.3 80 2.6 N 4 6 2 3 1007.0 1006.9 0.0
15/06:30pm 27.3 31.7 23.5 80 2.6 NNW 6 11 3 6 1006.7 1006.6 0.0
15/06:00pm 27.7 30.8 22.9 75 3.3 N 11 17 6 9 1006.1 1006.0 0.0
15/05:30pm 28.9 31.1 23.3 72 3.8 NNW 17 28 9 15 1005.1 1005.0 0.0
15/05:00pm 30.6 31.3 22.2 61 5.7 NNW 22 35 12 19 1004.4 1004.3 0.0
15/04:57pm 30.4 30.7 21.5 59 6.0 N 22 35 12 19 1004.3 1004.2 0.0
15/04:30pm 35.5 39.0 22.1 45 9.2 W 7 13 4 7 1004.1 1004.0 0.0
15/04:00pm 35.4 39.0 22.0 45 9.2 WNW 6 11 3 6 1004.0 1003.9 0.0
15/03:30pm 35.0 38.4 22.7 49 8.5 WNW 9 13 5 7 1004.6 1004.5 0.0
15/03:00pm 35.0 38.0 22.7 49 8.5 W 11 19 6 10 1004.9 1004.8 0.0
15/02:30pm 34.9 37.6 22.2 47 8.7 WNW 11 17 6 9 1005.0 1004.9 0.0
15/02:00pm 35.0 39.7 23.3 50 8.1 WNW 4 7 2 4 1005.4 1005.3 0.0
15/01:30pm 32.5 35.2 22.9 57 6.6 W 13 22 7 12 1005.7 1005.6 0.0
15/01:00pm 34.7 38.7 22.7 49 8.3 WSW 6 15 3 8 1006.1 1006.0 0.0
15/12:30pm 34.7 39.0 22.7 49 8.3 SSE 4 7 2 4 1006.6 1006.5 0.0
15/12:00pm 34.1 37.9 23.5 54 7.4 SSW 9 17 5 9 1007.1 1007.0 0.0
15/11:30am 34.5 38.6 23.2 51 7.9 WNW 7 15 4 8 1007.6 1007.5 0.0
15/11:00am 33.3 37.6 22.7 53 7.3 W 4 9 2 5 1008.2 1008.1 0.0
15/10:30am 33.0 37.7 23.9 59 6.4 W 6 13 3 7 1008.6 1008.5 0.0
15/10:00am 32.5 37.3 24.5 62 5.6 WNW 7 13 4 7 1008.8 1008.7 0.0
15/09:30am 31.4 36.1 24.3 66 5.0 NW 7 11 4 6 1009.0 1008.9 0.0
15/09:00am 31.4 37.4 24.8 68 4.6 WSW 2 4 1 2 1009.1 1009.0 0.0
15/08:30am 30.5 36.2 24.4 70 4.3 NNW 2 7 1 4 1009.0 1008.9 0.0
15/08:00am 29.5 35.4 24.1 72 3.7 CALM 0 4 0 2 1009.1 1009.0 0.0
15/07:30am 28.4 34.2 24.6 80 2.7 S 2 4 1 2 1009.0 1008.9 0.0
15/07:00am 27.2 33.4 25.2 89 1.4 SSW 2 4 1 2 1008.8 1008.7 0.0
15/06:30am 25.9 31.7 24.5 92 1.0 SSW 2 2 1 1 1008.8 1008.7 0.0
15/06:00am 26.1 32.1 24.3 90 1.2 CALM 0 0 0 0 1008.1 1008.0 0.0
15/05:30am 26.6 32.7 24.4 88 1.5 CALM 0 2 0 1 1007.7 1007.6 0.0
15/05:00am 27.0 32.3 24.3 85 1.9 ENE 4 6 2 3 1007.0 1006.9 0.0
15/04:30am 26.7 31.9 24.2 86 1.7 E 4 6 2 3 1006.8 1006.7 0.0
15/04:00am 27.0 32.3 24.3 85 1.9 ENE 4 6 2 3 1006.9 1006.8 0.0
15/03:30am 27.0 32.9 24.1 84 2.0 CALM 0 0 0 0 1007.1 1007.0 0.0
15/03:00am 26.9 32.3 23.8 83 2.1 ENE 2 4 1 2 1007.4 1007.3 0.0
15/02:30am 27.1 32.5 23.8 82 2.3 ENE 2 4 1 2 1007.4 1007.3 0.0
15/02:00am 27.4 31.8 23.4 79 2.7 ENE 6 9 3 5 1007.5 1007.4 0.0
15/01:30am 27.4 32.0 23.2 78 2.9 ENE 4 7 2 4 1007.8 1007.7 0.0
15/01:00am 27.6 31.7 23.0 76 3.1 ENE 6 7 3 4 1008.3 1008.2 0.0
15/12:30am 27.6 31.7 23.0 76 3.1 E 6 7 3 4 1008.4 1008.3 0.0
15/12:00am 27.8 31.9 23.0 75 3.3 E 6 7 3 4 1008.3 1008.2 0.0
 
Date/Time
CST
Temp
°C
App
Temp
°C
Dew
Point
°C
Rel
Hum
%
Delta-T
°C
Wind Press
QNH
hPa
Press
MSL
hPa
Rain since
9am
mm
Dir  Spd
km/h
Gust
km/h
Spd
kts
Gust
kts
14/11:30pm 27.8 31.3 22.1 71 3.8 ENE 7 11 4 6 1007.9 1007.8 0.0
14/11:00pm 28.0 31.7 22.2 70 3.9 ENE 6 7 3 4 1008.0 1007.9 0.0
14/10:30pm 28.0 31.6 22.0 70 4.0 NE 6 7 3 4 1008.1 1008.0 0.0
14/10:00pm 28.4 32.3 21.9 68 4.4 ENE 4 6 2 3 1008.1 1008.0 0.0
14/09:30pm 28.6 32.1 21.1 64 5.0 ENE 4 4 2 2 1007.8 1007.7 0.0
14/09:00pm 28.8 32.4 20.5 61 5.5 NNE 2 4 1 2 1007.4 1007.3 0.0
14/08:30pm 29.1 32.8 20.8 61 5.5 ENE 2 6 1 3 1006.9 1006.8 0.0
14/08:00pm 29.8 32.6 20.4 57 6.2 NE 6 6 3 3 1006.7 1006.6 0.0
14/07:30pm 30.4 33.2 20.9 57 6.3 NNE 7 9 4 5 1006.1 1006.0 0.0
14/07:00pm 30.8 33.3 21.0 56 6.5 N 9 15 5 8 1005.7 1005.6 0.0
14/06:30pm 31.0 32.6 21.5 57 6.4 N 15 20 8 11 1005.4 1005.3 0.0
14/06:00pm 31.7 33.7 21.5 54 6.9 N 13 22 7 12 1004.8 1004.7 0.0
14/05:30pm 35.3 38.6 21.9 45 9.2 W 7 15 4 8 1004.3 1004.2 0.0
14/05:00pm 36.5 38.8 19.4 36 11.4 SSE 6 9 3 5 1004.1 1004.0 0.0
14/04:30pm 36.5 38.8 18.6 35 11.8 SSW 4 7 2 4 1004.1 1004.0 0.0
14/04:00pm 36.4 38.8 18.9 35 11.5 SSW 4 7 2 4 1004.4 1004.3 0.0
14/03:30pm 36.4 38.1 18.0 33 12.0 SSE 6 15 3 8 1004.6 1004.5 0.0
14/03:00pm 37.0 40.3 19.9 36 11.5 ENE 2 6 1 3 1004.9 1004.8 0.0
14/02:30pm 36.1 39.4 19.1 36 11.3 CALM 0 0 0 0 1005.2 1005.1 0.0
14/02:00pm 34.8 37.4 20.4 43 9.6 N 7 15 4 8 1005.8 1005.7 0.0
14/01:30pm 35.6 38.5 19.9 39 10.5 NW 4 11 2 6 1006.2 1006.1 0.0
14/01:00pm 34.6 38.0 22.0 48 8.6 NNW 7 13 4 7 1006.8 1006.7 0.0
14/12:30pm 33.8 36.8 22.6 52 7.7 WNW 11 24 6 13 1007.4 1007.3 0.0
14/12:00pm 34.0 37.6 22.1 50 8.1 WNW 6 15 3 8 1007.8 1007.7 0.0
14/11:30am 33.5 38.1 23.2 54 7.1 NW 4 11 2 6 1008.2 1008.1 0.0
14/11:00am 33.2 36.8 22.3 52 7.5 NW 7 11 4 6 1008.7 1008.6 0.0
14/10:30am 32.2 38.0 24.5 64 5.4 SW 2 6 1 3 1009.0 1008.9 0.0
14/10:00am 31.0 36.1 23.4 64 5.2 W 2 6 1 3 1009.4 1009.3 0.0
14/09:30am 29.9 35.2 23.1 67 4.7 CALM 0 4 0 2 1009.5 1009.4 0.0
14/09:00am 29.3 34.3 22.5 67 4.6 CALM 0 2 0 1 1009.5 1009.4 1.6
14/08:30am 28.9 34.7 24.0 75 3.4 CALM 0 4 0 2 1009.6 1009.5 1.6
14/08:00am 27.3 32.9 24.2 83 2.1 WSW 2 6 1 3 1009.2 1009.1 1.6
14/07:30am 25.9 30.9 23.9 89 1.4 SW 4 7 2 4 1008.8 1008.7 1.6
14/07:00am 25.1 30.2 24.1 94 0.7 WSW 4 7 2 4 1008.6 1008.5 1.6
14/06:30am 25.1 31.1 24.2 95 0.6 CALM 0 6 0 3 1008.4 1008.3 1.6
14/06:00am 24.9 30.7 23.9 94 0.7 CALM 0 0 0 0 1007.9 1007.8 1.6
14/05:30am 25.1 30.8 23.7 92 1.0 CALM 0 0 0 0 1007.5 1007.4 1.6
14/05:00am 25.4 31.1 23.8 91 1.1 CALM 0 0 0 0 1007.1 1007.0 1.6
14/04:30am 25.0 30.6 23.6 92 1.0 CALM 0 0 0 0 1007.3 1007.2 1.6
14/04:00am 24.8 29.5 23.4 92 1.0 SSW 4 7 2 4 1007.4 1007.3 1.6
14/03:30am 25.0 30.5 23.4 91 1.1 CALM 0 0 0 0 1007.7 1007.6 1.6
14/03:00am 25.0 30.0 23.2 90 1.2 SW 2 6 1 3 1007.9 1007.8 1.6
14/02:30am 25.4 30.2 23.5 89 1.3 W 4 6 2 3 1007.9 1007.8 1.6
14/02:00am 25.6 30.1 23.7 89 1.3 SW 6 9 3 5 1008.1 1008.0 1.6
14/01:30am 26.7 31.3 24.2 86 1.7 W 7 13 4 7 1008.4 1008.3 1.6
14/01:00am 26.4 31.1 23.9 86 1.7 WNW 6 11 3 6 1008.9 1008.8 1.6
14/12:30am 26.5 32.1 24.2 87 1.6 NE 2 7 1 4 1009.3 1009.2 1.6
14/12:00am 26.5 32.1 23.6 84 2.0 CALM 0 4 0 2 1009.4 1009.3 1.6
 
Date/Time
CST
Temp
°C
App
Temp
°C
Dew
Point
°C
Rel
Hum
%
Delta-T
°C
Wind Press
QNH
hPa
Press
MSL
hPa
Rain since
9am
mm
Dir  Spd
km/h
Gust
km/h
Spd
kts
Gust
kts
13/11:30pm 26.5 31.2 24.0 86 1.7 NNE 6 11 3 6 1009.6 1009.5 1.6
13/11:00pm 26.3 29.3 22.6 80 2.5 E 11 15 6 8 1010.3 1010.2 1.2
13/10:30pm 26.9 31.3 22.1 75 3.2 WNW 2 6 1 3 1010.0 1009.9 0.8
13/10:00pm 27.1 29.8 20.7 68 4.2 N 7 11 4 6 1009.3 1009.2 0.8
13/09:30pm 28.1 29.6 20.6 63 5.0 NNE 13 20 7 11 1009.3 1009.2 0.8
13/09:00pm 28.4 33.1 24.0 77 3.0 NE 6 7 3 4 1008.8 1008.7 0.8
13/08:30pm 28.3 33.0 23.4 75 3.4 NE 4 6 2 3 1008.8 1008.7 0.8
13/08:00pm 28.4 32.4 23.1 73 3.6 N 7 11 4 6 1007.9 1007.8 0.8
13/07:30pm 28.9 32.9 23.1 71 4.0 N 7 11 4 6 1007.4 1007.3 0.8
13/07:00pm 29.2 33.6 23.4 71 4.0 N 6 9 3 5 1007.0 1006.9 0.8

Other Formats:

Comma delimited format used in spreadsheet applications
http://www.bom.gov.au/fwo/IDD60801/IDD60801.94110.axf

JavaScript Object Notation format (JSON) in row-major order
http://www.bom.gov.au/fwo/IDD60801/IDD60801.94110.json